createdAt,value
2017-12-30T00:00:22.613Z,96677.27
2017-12-30T00:00:54.229Z,96672.27
2017-12-30T00:01:25.849Z,96675.33
2017-12-30T00:01:57.481Z,96675.69
2017-12-30T00:02:29.110Z,96682.27
2017-12-30T00:03:00.742Z,96674.23
2017-12-30T00:03:32.361Z,96681.94
2017-12-30T00:04:03.982Z,96681.05
2017-12-30T00:04:35.646Z,96674.30
2017-12-30T00:05:07.266Z,96676.08
2017-12-30T00:05:38.945Z,96678.66
2017-12-30T00:06:10.569Z,96676.49
2017-12-30T00:06:42.189Z,96672.16
2017-12-30T00:07:13.812Z,96667.43
2017-12-30T00:07:45.442Z,96674.27
2017-12-30T00:08:17.065Z,96668.30
2017-12-30T00:08:48.690Z,96678.37
2017-12-30T00:09:20.314Z,96674.98
2017-12-30T00:09:51.937Z,96673.69
2017-12-30T00:10:23.569Z,96672.41
2017-12-30T00:10:55.241Z,96672.88
2017-12-30T00:11:26.862Z,96679.47
2017-12-30T00:11:58.480Z,96686.77
2017-12-30T00:12:30.101Z,96682.58
2017-12-30T00:13:01.725Z,96683.02
2017-12-30T00:13:33.356Z,96687.05
2017-12-30T00:14:05.010Z,96678.10
2017-12-30T00:14:36.633Z,96687.47
2017-12-30T00:15:08.258Z,96692.83
2017-12-30T00:15:39.882Z,96686.72
2017-12-30T00:16:11.572Z,96683.36
2017-12-30T00:16:43.197Z,96692.66
2017-12-30T00:17:14.821Z,96690.24
2017-12-30T00:17:46.444Z,96686.91
2017-12-30T00:18:18.070Z,96693.83
2017-12-30T00:18:49.693Z,96698.55
2017-12-30T00:19:21.317Z,96697.91
2017-12-30T00:19:52.949Z,96689.84
2017-12-30T00:20:24.570Z,96691.16
2017-12-30T00:20:56.201Z,96688.84
2017-12-30T00:21:27.881Z,96692.26
2017-12-30T00:21:59.502Z,96680.89
2017-12-30T00:22:31.121Z,96688.12
2017-12-30T00:23:02.742Z,96691.62
2017-12-30T00:23:34.366Z,96685.14
2017-12-30T00:24:05.987Z,96686.06
2017-12-30T00:24:37.605Z,96688.56
2017-12-30T00:25:09.229Z,96690.34
2017-12-30T00:25:40.853Z,96686.98
2017-12-30T00:26:12.473Z,96684.89
2017-12-30T00:26:44.137Z,96687.50
2017-12-30T00:27:15.758Z,96688.36
2017-12-30T00:27:47.389Z,96692.25
2017-12-30T00:28:19.015Z,96687.59
2017-12-30T00:28:50.638Z,96687.20
2017-12-30T00:29:22.261Z,96694.41
2017-12-30T00:29:53.883Z,96692.75
2017-12-30T00:30:25.510Z,96690.33
2017-12-30T00:30:57.138Z,96691.27
2017-12-30T00:31:28.924Z,96694.69
2017-12-30T00:32:00.549Z,96699.81
2017-12-30T00:32:32.253Z,96692.20
2017-12-30T00:33:03.910Z,96690.09
2017-12-30T00:33:35.529Z,96689.79
2017-12-30T00:34:07.158Z,96694.92
2017-12-30T00:34:38.781Z,96693.20
2017-12-30T00:35:11.421Z,96697.56
2017-12-30T00:35:43.045Z,96694.28
2017-12-30T00:36:14.673Z,96699.80
2017-12-30T00:36:46.293Z,96701.94
2017-12-30T00:37:17.913Z,96695.69
2017-12-30T00:37:49.582Z,96701.23
2017-12-30T00:38:21.202Z,96696.57
2017-12-30T00:38:52.823Z,96703.88
2017-12-30T00:39:24.454Z,96704.34
2017-12-30T00:39:56.085Z,96702.23
2017-12-30T00:40:27.874Z,96703.14
2017-12-30T00:40:59.501Z,96705.88
2017-12-30T00:41:31.125Z,96702.86
2017-12-30T00:42:02.745Z,96705.05
2017-12-30T00:42:34.368Z,96710.21
2017-12-30T00:43:06.038Z,96707.68
2017-12-30T00:43:37.667Z,96698.77
2017-12-30T00:44:09.289Z,96704.30
2017-12-30T00:44:40.909Z,96703.93
2017-12-30T00:45:12.537Z,96706.48
2017-12-30T00:45:44.162Z,96705.25
2017-12-30T00:46:15.781Z,96707.39
2017-12-30T00:46:47.401Z,96704.42
2017-12-30T00:47:19.237Z,96704.00
2017-12-30T00:47:50.858Z,96704.06
2017-12-30T00:48:22.548Z,96702.83
2017-12-30T00:48:54.174Z,96709.19
2017-12-30T00:49:25.802Z,96706.64
2017-12-30T00:49:57.425Z,96711.75
2017-12-30T00:50:29.046Z,96707.47
2017-12-30T00:51:00.666Z,96706.20
2017-12-30T00:51:32.289Z,96712.14
2017-12-30T00:52:03.913Z,96710.08
2017-12-30T00:52:35.533Z,96710.47
2017-12-30T00:53:07.160Z,96712.62
2017-12-30T00:53:38.834Z,96711.41
2017-12-30T00:54:10.449Z,96711.35
2017-12-30T00:54:42.076Z,96706.72
2017-12-30T00:55:13.698Z,96709.72
2017-12-30T00:55:45.321Z,96712.61
2017-12-30T00:56:16.976Z,96710.88
2017-12-30T00:56:48.600Z,96712.58
2017-12-30T00:57:20.221Z,96711.35
2017-12-30T00:57:51.845Z,96715.58
2017-12-30T00:58:23.466Z,96713.05
2017-12-30T00:58:55.142Z,96715.13
2017-12-30T00:59:26.770Z,96707.52
2017-12-30T00:59:58.390Z,96709.16
2017-12-30T01:00:30.019Z,96711.28
2017-12-30T01:01:01.646Z,96708.23
2017-12-30T01:01:33.281Z,96710.73
2017-12-30T01:02:04.907Z,96712.38
2017-12-30T01:02:36.543Z,96716.09
2017-12-30T01:03:08.205Z,96712.32
2017-12-30T01:03:39.852Z,96717.11
2017-12-30T01:04:11.478Z,96719.14
2017-12-30T01:04:43.105Z,96722.09
2017-12-30T01:05:14.731Z,96715.70
2017-12-30T01:05:46.358Z,96718.23
2017-12-30T01:06:17.993Z,96713.92
2017-12-30T01:06:49.614Z,96716.35
2017-12-30T01:07:21.240Z,96715.63
2017-12-30T01:07:52.862Z,96715.49
2017-12-30T01:08:24.482Z,96718.22
2017-12-30T01:08:56.105Z,96722.06
2017-12-30T01:09:27.770Z,96720.31
2017-12-30T01:09:59.402Z,96717.45
2017-12-30T01:10:31.026Z,96723.73
2017-12-30T01:11:02.648Z,96718.25
2017-12-30T01:11:34.278Z,96719.81
2017-12-30T01:12:05.942Z,96722.37
2017-12-30T01:12:37.563Z,96716.61
2017-12-30T01:13:09.187Z,96713.95
2017-12-30T01:13:40.818Z,96721.51
2017-12-30T01:14:12.454Z,96720.20
2017-12-30T01:14:44.129Z,96728.63
2017-12-30T01:15:15.758Z,96727.43
2017-12-30T01:15:47.381Z,96721.27
2017-12-30T01:16:18.997Z,96722.96
2017-12-30T01:16:50.621Z,96725.52
2017-12-30T01:17:22.245Z,96722.52
2017-12-30T01:17:53.872Z,96726.66
2017-12-30T01:18:25.529Z,96724.53
2017-12-30T01:18:57.156Z,96724.44
2017-12-30T01:19:28.782Z,96720.17
2017-12-30T01:20:00.458Z,96726.00
2017-12-30T01:20:32.078Z,96717.95
2017-12-30T01:21:03.710Z,96722.98
2017-12-30T01:21:35.333Z,96731.40
2017-12-30T01:22:07.467Z,96728.01
2017-12-30T01:22:39.094Z,96724.16
2017-12-30T01:23:10.713Z,96724.98
2017-12-30T01:23:42.336Z,96728.30
2017-12-30T01:24:13.962Z,96729.02
2017-12-30T01:24:45.590Z,96733.73
2017-12-30T01:25:17.261Z,96728.82
2017-12-30T01:25:48.882Z,96729.59
2017-12-30T01:26:20.509Z,96722.32
2017-12-30T01:26:52.130Z,96733.83
2017-12-30T01:27:23.751Z,96731.29
2017-12-30T01:27:55.386Z,96730.34
2017-12-30T01:28:27.010Z,96730.09
2017-12-30T01:28:58.629Z,96729.20
2017-12-30T01:29:30.249Z,96730.59
2017-12-30T01:30:01.901Z,96724.56
2017-12-30T01:30:33.594Z,96728.84
2017-12-30T01:31:05.222Z,96728.34
2017-12-30T01:31:36.850Z,96729.27
2017-12-30T01:32:08.478Z,96727.45
2017-12-30T01:32:40.101Z,96726.58
2017-12-30T01:33:11.725Z,96728.27
2017-12-30T01:33:43.354Z,96726.63
2017-12-30T01:34:14.990Z,96721.88
2017-12-30T01:34:46.609Z,96730.54
2017-12-30T01:35:18.228Z,96724.98
2017-12-30T01:35:49.905Z,96728.09
2017-12-30T01:36:21.525Z,96726.86
2017-12-30T01:36:53.158Z,96724.70
2017-12-30T01:37:24.785Z,96725.88
2017-12-30T01:37:56.413Z,96724.59
2017-12-30T01:38:28.037Z,96726.73
2017-12-30T01:38:59.662Z,96726.81
2017-12-30T01:39:31.286Z,96718.31
2017-12-30T01:40:02.908Z,96722.90
2017-12-30T01:40:34.534Z,96717.03
2017-12-30T01:41:06.162Z,96715.01
2017-12-30T01:41:37.825Z,96718.37
2017-12-30T01:42:09.457Z,96724.84
2017-12-30T01:42:41.077Z,96719.02
2017-12-30T01:43:12.697Z,96721.97
2017-12-30T01:43:44.317Z,96724.11
2017-12-30T01:44:16.032Z,96720.30
2017-12-30T01:44:47.606Z,96719.55
2017-12-30T01:45:19.274Z,96724.80
2017-12-30T01:45:50.893Z,96723.52
2017-12-30T01:46:22.514Z,96729.98
2017-12-30T01:46:54.138Z,96725.76
2017-12-30T01:47:26.063Z,96721.09
2017-12-30T01:47:57.682Z,96733.34
2017-12-30T01:48:29.305Z,96727.45
2017-12-30T01:49:00.937Z,96738.06
2017-12-30T01:49:32.574Z,96736.84
2017-12-30T01:50:04.201Z,96725.00
2017-12-30T01:50:35.871Z,96735.27
2017-12-30T01:51:07.497Z,96725.19
2017-12-30T01:51:39.125Z,96731.27
2017-12-30T01:52:10.749Z,96727.62
2017-12-30T01:52:42.370Z,96729.73
2017-12-30T01:53:14.002Z,96731.97
2017-12-30T01:53:45.629Z,96728.92
2017-12-30T01:54:17.254Z,96733.63
2017-12-30T01:54:48.885Z,96732.94
2017-12-30T01:55:20.505Z,96733.33
2017-12-30T01:55:52.129Z,96732.98
2017-12-30T01:56:23.798Z,96727.83
2017-12-30T01:56:55.436Z,96732.98
2017-12-30T01:57:27.057Z,96731.69
2017-12-30T01:57:58.681Z,96733.84
2017-12-30T01:58:30.305Z,96738.95
2017-12-30T01:59:01.925Z,96734.76
2017-12-30T01:59:33.594Z,96735.62
2017-12-30T02:00:05.218Z,96735.20
2017-12-30T02:00:36.841Z,96727.14
2017-12-30T02:01:08.461Z,96727.17
2017-12-30T02:01:40.081Z,96734.47
2017-12-30T02:02:11.709Z,96733.24
2017-12-30T02:02:43.332Z,96731.63
2017-12-30T02:03:14.953Z,96727.90
2017-12-30T02:03:46.573Z,96727.41
2017-12-30T02:04:18.198Z,96732.92
2017-12-30T02:04:49.857Z,96729.18
2017-12-30T02:05:21.485Z,96735.54
2017-12-30T02:05:53.109Z,96728.00
2017-12-30T02:06:24.743Z,96733.53
2017-12-30T02:06:56.367Z,96730.06
2017-12-30T02:07:27.993Z,96730.98
2017-12-30T02:07:59.614Z,96739.00
2017-12-30T02:08:31.243Z,96731.42
2017-12-30T02:09:02.884Z,96731.00
2017-12-30T02:09:34.506Z,96732.33
2017-12-30T02:10:06.165Z,96728.58
2017-12-30T02:10:37.790Z,96725.55
2017-12-30T02:11:09.412Z,96732.41
2017-12-30T02:11:41.062Z,96733.70
2017-12-30T02:12:12.690Z,96726.88
2017-12-30T02:12:44.329Z,96724.77
2017-12-30T02:13:15.959Z,96730.27
2017-12-30T02:13:47.606Z,96728.59
2017-12-30T02:14:19.229Z,96724.77
2017-12-30T02:14:50.861Z,96725.75
2017-12-30T02:15:22.669Z,96731.65
2017-12-30T02:15:54.289Z,96730.39
2017-12-30T02:16:25.916Z,96734.33
2017-12-30T02:16:57.537Z,96738.08
2017-12-30T02:17:29.156Z,96726.56
2017-12-30T02:18:00.777Z,96731.34
2017-12-30T02:18:32.405Z,96736.44
2017-12-30T02:19:04.035Z,96733.41
2017-12-30T02:19:35.653Z,96732.27
2017-12-30T02:20:07.276Z,96728.05
2017-12-30T02:20:38.943Z,96733.49
2017-12-30T02:21:10.570Z,96725.88
2017-12-30T02:21:42.238Z,96727.50
2017-12-30T02:22:13.857Z,96729.95
2017-12-30T02:22:45.480Z,96726.55
2017-12-30T02:23:17.109Z,96729.14
2017-12-30T02:23:48.729Z,96729.94
2017-12-30T02:24:20.351Z,96732.43
2017-12-30T02:24:51.970Z,96726.00
2017-12-30T02:25:23.634Z,96730.14
2017-12-30T02:25:55.254Z,96733.45
2017-12-30T02:26:26.873Z,96730.45
2017-12-30T02:26:58.502Z,96732.48
2017-12-30T02:27:30.121Z,96734.70
2017-12-30T02:28:01.743Z,96731.34
2017-12-30T02:28:33.368Z,96736.73
2017-12-30T02:29:05.030Z,96733.73
2017-12-30T02:29:36.658Z,96729.05
2017-12-30T02:30:08.277Z,96728.63
2017-12-30T02:30:39.897Z,96733.55
2017-12-30T02:31:11.518Z,96722.27
2017-12-30T02:31:43.133Z,96736.48
2017-12-30T02:32:14.793Z,96736.38
2017-12-30T02:32:46.417Z,96730.83
2017-12-30T02:33:18.039Z,96734.00
2017-12-30T02:33:49.670Z,96740.20
2017-12-30T02:34:21.293Z,96724.13
2017-12-30T02:34:52.976Z,96728.69
2017-12-30T02:35:24.597Z,96728.13
2017-12-30T02:35:56.222Z,96732.80
2017-12-30T02:36:27.845Z,96732.36
2017-12-30T02:36:59.465Z,96727.45
2017-12-30T02:37:31.091Z,96725.34
2017-12-30T02:38:02.718Z,96729.05
2017-12-30T02:38:34.347Z,96729.44
2017-12-30T02:39:05.969Z,96727.94
2017-12-30T02:39:37.593Z,96730.00
2017-12-30T02:40:09.213Z,96727.36
2017-12-30T02:40:40.837Z,96733.75
2017-12-30T02:41:12.466Z,96727.73
2017-12-30T02:41:44.089Z,96725.06
2017-12-30T02:42:15.709Z,96728.73
2017-12-30T02:42:47.338Z,96726.18
2017-12-30T02:43:18.966Z,96725.30
2017-12-30T02:43:50.589Z,96726.44
2017-12-30T02:44:22.253Z,96727.34
2017-12-30T02:44:53.874Z,96722.77
2017-12-30T02:45:25.494Z,96725.30
2017-12-30T02:45:57.118Z,96726.58
2017-12-30T02:46:28.749Z,96723.47
2017-12-30T02:47:00.377Z,96725.69
2017-12-30T02:47:32.002Z,96720.19
2017-12-30T02:48:03.623Z,96724.19
2017-12-30T02:48:35.292Z,96727.61
2017-12-30T02:49:06.921Z,96721.16
2017-12-30T02:49:38.542Z,96716.36
2017-12-30T02:50:10.170Z,96722.41
2017-12-30T02:50:41.793Z,96723.91
2017-12-30T02:51:13.417Z,96723.83
2017-12-30T02:51:45.049Z,96727.44
2017-12-30T02:52:16.681Z,96724.80
2017-12-30T02:52:48.306Z,96729.02
2017-12-30T02:53:19.925Z,96724.16
2017-12-30T02:53:51.589Z,96725.38
2017-12-30T02:54:23.215Z,96727.15
2017-12-30T02:54:54.841Z,96727.92
2017-12-30T02:55:26.461Z,96730.13
2017-12-30T02:55:58.082Z,96725.34
2017-12-30T02:56:29.759Z,96725.66
2017-12-30T02:57:01.387Z,96728.40
2017-12-30T02:57:33.039Z,96728.89
2017-12-30T02:58:04.665Z,96723.31
2017-12-30T02:58:36.302Z,96729.35
2017-12-30T02:59:07.925Z,96722.60
2017-12-30T02:59:39.545Z,96727.05
2017-12-30T03:00:11.166Z,96721.76
2017-12-30T03:00:42.798Z,96721.47
2017-12-30T03:01:14.418Z,96728.88
2017-12-30T03:01:46.085Z,96726.07
2017-12-30T03:02:17.705Z,96722.78
2017-12-30T03:02:49.325Z,96726.20
2017-12-30T03:03:20.950Z,96731.84
2017-12-30T03:03:52.578Z,96728.08
2017-12-30T03:04:24.201Z,96728.99
2017-12-30T03:04:55.826Z,96725.47
2017-12-30T03:05:27.471Z,96726.39
2017-12-30T03:05:59.090Z,96728.55
2017-12-30T03:06:30.757Z,96729.41
2017-12-30T03:07:02.383Z,96732.41
2017-12-30T03:07:34.005Z,96727.43
2017-12-30T03:08:05.634Z,96725.40
2017-12-30T03:08:37.257Z,96726.75
2017-12-30T03:09:08.878Z,96727.77
2017-12-30T03:09:40.509Z,96728.30
2017-12-30T03:10:12.162Z,96723.94
2017-12-30T03:10:43.785Z,96732.25
2017-12-30T03:11:15.406Z,96731.37
2017-12-30T03:11:47.073Z,96731.06
2017-12-30T03:12:18.698Z,96728.09
2017-12-30T03:12:50.321Z,96727.36
2017-12-30T03:13:21.941Z,96725.24
2017-12-30T03:13:53.570Z,96728.23
2017-12-30T03:14:25.190Z,96727.80
2017-12-30T03:14:56.814Z,96725.24
2017-12-30T03:15:28.437Z,96730.02
2017-12-30T03:16:00.067Z,96720.27
2017-12-30T03:16:31.730Z,96725.34
2017-12-30T03:17:03.353Z,96730.09
2017-12-30T03:17:34.974Z,96730.03
2017-12-30T03:18:06.654Z,96734.27
2017-12-30T03:18:38.299Z,96734.34
2017-12-30T03:19:09.921Z,96737.36
2017-12-30T03:19:41.541Z,96739.94
2017-12-30T03:20:13.234Z,96743.34
2017-12-30T03:20:44.862Z,96741.73
2017-12-30T03:21:16.489Z,96736.67
2017-12-30T03:21:48.109Z,96740.19
2017-12-30T03:22:19.731Z,96742.83
2017-12-30T03:22:51.350Z,96739.00
2017-12-30T03:23:23.012Z,96739.45
2017-12-30T03:23:54.629Z,96736.88
2017-12-30T03:24:26.251Z,96736.45
2017-12-30T03:24:57.886Z,96739.87
2017-12-30T03:25:29.509Z,96740.78
2017-12-30T03:26:01.133Z,96728.85
2017-12-30T03:26:32.761Z,96731.89
2017-12-30T03:27:04.385Z,96738.25
2017-12-30T03:27:36.010Z,96735.70
2017-12-30T03:28:07.661Z,96734.45
2017-12-30T03:28:39.338Z,96727.28
2017-12-30T03:29:10.975Z,96730.16
2017-12-30T03:29:42.593Z,96735.30
2017-12-30T03:30:14.214Z,96734.11
2017-12-30T03:30:45.841Z,96729.42
2017-12-30T03:31:17.462Z,96727.75
2017-12-30T03:31:49.086Z,96732.39
2017-12-30T03:32:20.718Z,96732.86
2017-12-30T03:32:52.337Z,96730.83
2017-12-30T03:33:23.966Z,96730.83
2017-12-30T03:33:55.626Z,96730.90
2017-12-30T03:34:27.250Z,96731.76
2017-12-30T03:34:58.870Z,96730.92
2017-12-30T03:35:30.490Z,96725.41
2017-12-30T03:36:02.109Z,96731.78
2017-12-30T03:36:33.738Z,96731.28
2017-12-30T03:37:05.357Z,96731.28
2017-12-30T03:37:36.982Z,96731.69
2017-12-30T03:38:08.602Z,96728.66
2017-12-30T03:38:40.274Z,96730.38
2017-12-30T03:39:11.897Z,96727.77
2017-12-30T03:39:43.526Z,96731.16
2017-12-30T03:40:15.149Z,96726.79
2017-12-30T03:40:46.769Z,96728.05
2017-12-30T03:41:18.394Z,96732.28
2017-12-30T03:41:50.013Z,96728.78
2017-12-30T03:42:21.635Z,96727.03
2017-12-30T03:42:53.262Z,96733.68
2017-12-30T03:43:24.887Z,96733.27
2017-12-30T03:43:56.561Z,96737.05
2017-12-30T03:44:28.186Z,96740.82
2017-12-30T03:44:59.809Z,96740.80
2017-12-30T03:45:31.430Z,96738.24
2017-12-30T03:46:03.051Z,96731.88
2017-12-30T03:46:34.671Z,96739.00
2017-12-30T03:47:06.298Z,96739.73
2017-12-30T03:47:37.918Z,96739.83
2017-12-30T03:48:09.541Z,96734.31
2017-12-30T03:48:41.161Z,96735.66
2017-12-30T03:49:12.781Z,96736.89
2017-12-30T03:49:44.410Z,96738.02
2017-12-30T03:50:16.029Z,96741.01
2017-12-30T03:50:47.650Z,96743.95
2017-12-30T03:51:19.269Z,96747.27
2017-12-30T03:51:50.889Z,96744.92
2017-12-30T03:52:22.522Z,96745.78
2017-12-30T03:52:54.158Z,96753.75
2017-12-30T03:53:25.782Z,96747.34
2017-12-30T03:53:57.406Z,96748.91
2017-12-30T03:54:29.065Z,96754.80
2017-12-30T03:55:00.693Z,96750.94
2017-12-30T03:55:32.318Z,96752.66
2017-12-30T03:56:03.941Z,96750.03
2017-12-30T03:56:35.609Z,96750.03
2017-12-30T03:57:07.230Z,96756.73
2017-12-30T03:57:38.850Z,96749.41
2017-12-30T03:58:10.478Z,96754.85
2017-12-30T03:58:42.105Z,96760.38
2017-12-30T03:59:13.730Z,96757.70
2017-12-30T03:59:45.353Z,96754.98
2017-12-30T04:00:16.978Z,96755.72
2017-12-30T04:00:48.606Z,96750.44
2017-12-30T04:01:20.232Z,96755.84
2017-12-30T04:01:51.901Z,96757.00
2017-12-30T04:02:23.527Z,96754.09
2017-12-30T04:02:55.149Z,96757.55
2017-12-30T04:03:26.770Z,96766.05
2017-12-30T04:03:58.398Z,96757.50
2017-12-30T04:04:30.021Z,96757.97
2017-12-30T04:05:01.646Z,96759.73
2017-12-30T04:05:33.268Z,96764.28
2017-12-30T04:06:04.889Z,96759.02
2017-12-30T04:06:36.514Z,96761.63
2017-12-30T04:07:08.257Z,96757.90
2017-12-30T04:07:39.877Z,96762.59
2017-12-30T04:08:11.497Z,96762.64
2017-12-30T04:08:43.126Z,96761.08
2017-12-30T04:09:14.745Z,96768.59
2017-12-30T04:09:46.365Z,96767.78
2017-12-30T04:10:17.993Z,96763.08
2017-12-30T04:10:49.650Z,96768.61
2017-12-30T04:11:21.270Z,96771.59
2017-12-30T04:11:52.893Z,96769.47
2017-12-30T04:12:24.553Z,96764.02
2017-12-30T04:12:56.173Z,96766.97
2017-12-30T04:13:27.794Z,96766.16
2017-12-30T04:13:59.422Z,96762.91
2017-12-30T04:14:31.045Z,96764.11
2017-12-30T04:15:02.670Z,96764.16
2017-12-30T04:15:34.290Z,96765.83
2017-12-30T04:16:05.907Z,96768.91
2017-12-30T04:16:37.534Z,96768.95
2017-12-30T04:17:09.157Z,96769.34
2017-12-30T04:17:40.825Z,96766.81
2017-12-30T04:18:12.445Z,96768.17
2017-12-30T04:18:44.078Z,96771.53
2017-12-30T04:19:15.696Z,96765.56
2017-12-30T04:19:47.318Z,96767.34
2017-12-30T04:20:18.978Z,96758.11
2017-12-30T04:20:50.597Z,96769.19
2017-12-30T04:21:22.221Z,96769.19
2017-12-30T04:21:53.837Z,96763.69
2017-12-30T04:22:25.469Z,96757.80
2017-12-30T04:22:57.085Z,96764.16
2017-12-30T04:23:28.705Z,96762.52
2017-12-30T04:24:00.334Z,96764.23
2017-12-30T04:24:32.004Z,96760.41
2017-12-30T04:25:03.622Z,96757.80
2017-12-30T04:25:35.241Z,96761.63
2017-12-30T04:26:06.866Z,96762.18
2017-12-30T04:26:38.502Z,96758.88
2017-12-30T04:27:10.121Z,96758.38
2017-12-30T04:27:41.738Z,96765.12
2017-12-30T04:28:13.366Z,96763.48
2017-12-30T04:28:44.985Z,96761.77
2017-12-30T04:29:16.609Z,96764.84
2017-12-30T04:29:48.270Z,96763.56
2017-12-30T04:30:19.893Z,96767.44
2017-12-30T04:30:51.518Z,96761.60
2017-12-30T04:31:23.150Z,96765.84
2017-12-30T04:31:54.778Z,96766.77
2017-12-30T04:32:26.402Z,96767.67
2017-12-30T04:32:58.021Z,96762.25
2017-12-30T04:33:29.676Z,96766.60
2017-12-30T04:34:01.307Z,96764.49
2017-12-30T04:34:32.930Z,96760.66
2017-12-30T04:35:04.596Z,96765.90
2017-12-30T04:35:36.217Z,96767.67
2017-12-30T04:36:07.842Z,96765.06
2017-12-30T04:36:39.473Z,96763.47
2017-12-30T04:37:11.101Z,96763.03
2017-12-30T04:37:42.721Z,96760.16
2017-12-30T04:38:14.344Z,96763.16
2017-12-30T04:38:45.970Z,96762.35
2017-12-30T04:39:17.598Z,96767.06
2017-12-30T04:39:49.270Z,96767.11
2017-12-30T04:40:20.889Z,96771.00
2017-12-30T04:40:52.510Z,96767.17
2017-12-30T04:41:24.129Z,96766.80
2017-12-30T04:41:55.749Z,96771.13
2017-12-30T04:42:27.405Z,96767.34
2017-12-30T04:42:59.026Z,96762.66
2017-12-30T04:43:30.646Z,96767.81
2017-12-30T04:44:02.291Z,96769.55
2017-12-30T04:44:33.913Z,96767.09
2017-12-30T04:45:05.580Z,96767.08
2017-12-30T04:45:37.198Z,96762.05
2017-12-30T04:46:08.822Z,96762.92
2017-12-30T04:46:40.447Z,96759.95
2017-12-30T04:47:12.069Z,96760.81
2017-12-30T04:47:43.697Z,96760.38
2017-12-30T04:48:15.318Z,96762.59
2017-12-30T04:48:46.992Z,96762.61
2017-12-30T04:49:18.614Z,96761.36
2017-12-30T04:49:50.242Z,96757.19
2017-12-30T04:50:21.862Z,96752.11
2017-12-30T04:50:53.492Z,96753.30
2017-12-30T04:51:25.113Z,96751.25
2017-12-30T04:51:56.733Z,96754.22
2017-12-30T04:52:28.358Z,96758.92
2017-12-30T04:52:59.977Z,96751.71
2017-12-30T04:53:31.602Z,96757.70
2017-12-30T04:54:03.262Z,96749.26
2017-12-30T04:54:34.890Z,96753.46
2017-12-30T04:55:06.510Z,96755.18
2017-12-30T04:55:38.185Z,96747.95
2017-12-30T04:56:09.813Z,96752.25
2017-12-30T04:56:41.445Z,96739.36
2017-12-30T04:57:13.074Z,96741.11
2017-12-30T04:57:44.693Z,96746.66
2017-12-30T04:58:16.314Z,96742.83
2017-12-30T04:58:47.934Z,96739.42
2017-12-30T04:59:19.555Z,96742.39
2017-12-30T04:59:51.174Z,96743.19
2017-12-30T05:00:22.822Z,96734.67
2017-12-30T05:00:54.485Z,96735.09
2017-12-30T05:01:26.106Z,96737.23
2017-12-30T05:01:57.721Z,96733.38
2017-12-30T05:02:29.348Z,96732.52
2017-12-30T05:03:00.969Z,96726.11
2017-12-30T05:03:32.590Z,96737.10
2017-12-30T05:04:04.218Z,96732.75
2017-12-30T05:04:35.837Z,96728.48
2017-12-30T05:05:07.466Z,96727.16
2017-12-30T05:05:39.091Z,96728.36
2017-12-30T05:06:10.709Z,96726.56
2017-12-30T05:06:42.330Z,96723.05
2017-12-30T05:07:13.954Z,96723.86
2017-12-30T05:07:45.585Z,96717.84
2017-12-30T05:08:17.253Z,96724.12
2017-12-30T05:08:48.926Z,96728.37
2017-12-30T05:09:20.555Z,96725.34
2017-12-30T05:09:52.182Z,96718.94
2017-12-30T05:10:23.801Z,96731.70
2017-12-30T05:10:55.422Z,96729.91
2017-12-30T05:11:27.041Z,96732.52
2017-12-30T05:11:58.661Z,96732.67
2017-12-30T05:12:30.289Z,96733.42
2017-12-30T05:13:01.919Z,96733.48
2017-12-30T05:13:33.541Z,96733.72
2017-12-30T05:14:05.209Z,96735.38
2017-12-30T05:14:36.829Z,96734.52
2017-12-30T05:15:08.454Z,96722.04
2017-12-30T05:15:40.073Z,96731.55
2017-12-30T05:16:11.693Z,96734.73
2017-12-30T05:16:43.321Z,96730.87
2017-12-30T05:17:14.945Z,96730.77
2017-12-30T05:17:46.574Z,96731.50
2017-12-30T05:18:18.198Z,96734.28
2017-12-30T05:18:49.821Z,96738.66
2017-12-30T05:19:21.493Z,96736.50
2017-12-30T05:19:53.116Z,96740.38
2017-12-30T05:20:24.733Z,96741.61
2017-12-30T05:20:56.353Z,96738.51
2017-12-30T05:21:27.985Z,96738.81
2017-12-30T05:21:59.605Z,96736.13
2017-12-30T05:22:31.230Z,96738.47
2017-12-30T05:23:02.874Z,96744.70
2017-12-30T05:23:34.501Z,96742.51
2017-12-30T05:24:06.122Z,96741.63
2017-12-30T05:24:37.798Z,96739.95
2017-12-30T05:25:09.422Z,96744.70
2017-12-30T05:25:41.046Z,96747.75
2017-12-30T05:26:12.669Z,96747.81
2017-12-30T05:26:44.293Z,96746.95
2017-12-30T05:27:15.921Z,96746.58
2017-12-30T05:27:47.542Z,96747.67
2017-12-30T05:28:19.166Z,96743.50
2017-12-30T05:28:50.785Z,96753.70
2017-12-30T05:29:22.405Z,96756.23
2017-12-30T05:29:54.084Z,96757.30
2017-12-30T05:30:25.705Z,96753.70
2017-12-30T05:30:57.325Z,96752.92
2017-12-30T05:31:28.945Z,96753.70
2017-12-30T05:32:00.569Z,96750.86
2017-12-30T05:32:32.189Z,96747.42
2017-12-30T05:33:03.853Z,96749.55
2017-12-30T05:33:35.473Z,96743.66
2017-12-30T05:34:07.093Z,96751.41
2017-12-30T05:34:38.717Z,96750.19
2017-12-30T05:35:10.378Z,96750.23
2017-12-30T05:35:42.002Z,96742.28
2017-12-30T05:36:13.665Z,96745.63
2017-12-30T05:36:45.289Z,96748.91
2017-12-30T05:37:16.911Z,96745.48
2017-12-30T05:37:48.537Z,96749.69
2017-12-30T05:38:20.197Z,96740.02
2017-12-30T05:38:51.817Z,96743.93
2017-12-30T05:39:23.445Z,96747.66
2017-12-30T05:39:55.077Z,96743.35
2017-12-30T05:40:26.697Z,96744.29
2017-12-30T05:40:58.362Z,96744.34
2017-12-30T05:41:30.021Z,96750.31
2017-12-30T05:42:01.665Z,96737.96
2017-12-30T05:42:33.302Z,96736.38
2017-12-30T05:43:04.921Z,96735.95
2017-12-30T05:43:36.549Z,96745.03
2017-12-30T05:44:08.174Z,96739.83
2017-12-30T05:44:39.793Z,96747.58
2017-12-30T05:45:11.418Z,96738.25
2017-12-30T05:45:43.041Z,96747.31
2017-12-30T05:46:14.669Z,96737.63
2017-12-30T05:46:46.330Z,96743.65
2017-12-30T05:47:17.953Z,96744.14
2017-12-30T05:47:49.574Z,96740.70
2017-12-30T05:48:21.206Z,96745.28
2017-12-30T05:48:52.839Z,96743.23
2017-12-30T05:49:24.461Z,96748.39
2017-12-30T05:49:56.082Z,96745.86
2017-12-30T05:50:27.712Z,96754.48
2017-12-30T05:50:59.333Z,96661.47
2017-12-30T05:51:30.999Z,96746.41
2017-12-30T05:52:02.665Z,96749.88
2017-12-30T05:52:34.326Z,96746.17
2017-12-30T05:53:05.945Z,96744.08
2017-12-30T05:53:37.569Z,96745.44
2017-12-30T05:54:09.193Z,96744.69
2017-12-30T05:54:40.813Z,96743.44
2017-12-30T05:55:12.442Z,96750.31
2017-12-30T05:55:44.070Z,96752.92
2017-12-30T05:56:15.690Z,96743.64
2017-12-30T05:56:47.314Z,96746.73
2017-12-30T05:57:18.937Z,96746.89
2017-12-30T05:57:50.556Z,96750.72
2017-12-30T05:58:22.222Z,96750.28
2017-12-30T05:58:53.849Z,96752.94
2017-12-30T05:59:25.478Z,96753.35
2017-12-30T05:59:57.102Z,96758.46
2017-12-30T06:00:28.720Z,96753.81
2017-12-30T06:01:00.342Z,96754.26
2017-12-30T06:01:32.994Z,96753.05
2017-12-30T06:02:04.653Z,96759.84
2017-12-30T06:02:36.274Z,96759.00
2017-12-30T06:03:07.901Z,96756.38
2017-12-30T06:03:39.521Z,96752.62
2017-12-30T06:04:11.147Z,96759.02
2017-12-30T06:04:42.805Z,96756.55
2017-12-30T06:05:14.434Z,96755.70
2017-12-30T06:05:46.053Z,96753.16
2017-12-30T06:06:17.679Z,96749.30
2017-12-30T06:06:49.297Z,96753.59
2017-12-30T06:07:20.918Z,96756.64
2017-12-30T06:07:52.537Z,96752.39
2017-12-30T06:08:24.164Z,96752.11
2017-12-30T06:08:55.831Z,96756.02
2017-12-30T06:09:27.453Z,96751.38
2017-12-30T06:09:59.082Z,96750.07
2017-12-30T06:10:30.702Z,96746.34
2017-12-30T06:11:02.321Z,96746.03
2017-12-30T06:11:33.941Z,96754.47